Betsiamites, Canada
Current Conditions -  °F | °C
As of 6:00 AM on Monday 20 Oct 2014 (Local Time) from CYBC Reporting Station
Overcast Overcast  
Wind Chill: 31°   Ceiling: 8500
Heat Index: 37°   Visibility: 9mi
Dew Point: 30°   Wind: 8mph
Humidity: 75%   Direction: 280°W
Pressure: 29.65"   Gusts: NA
Location:  48.95°N, 68.65°W
Report Text: CYBC 201000Z AUTO 28007KT 9SM OVC085 03/M01 A2965 RMK SLP040
Loading
Personal Weather Stations






























Interactive Weather Map
Tropical Storm Tracking
New forecast layout! Learn more

10-Day Weather Forecast

Advertisements
Track Severe Weather on mobile